Latest Weather Observations for Spring Bay

IDT60801

Issued at 9:31 pm EST Wednesday 1 July 2015 (issued every 30 minutes, with the page automatically refreshed every 10 minutes)

About weather observations | Map of weather stations | Latest weather observations for TAS | Other Formats
Station Details ID: 092133 Name: SPRING BAY NTC AWS Lat: -42.55 Lon: 147.93 Height: 0.0 m
Data from the previous 72 hours. | See also: Recent months for locations in Tasmania
Date/Time
EST
Temp
°C
App
Temp
°C
Dew
Point
Rel
Hum
%
Delta-T
°C
Wind Press
QNH
hPa
Press
MSL
hPa
Rain
since 9 am
mm
Dir
 
Spd
km/h
Gust
km/h
Spd
kts
Gust
kts
01/09:30pm 9.2 - - - - - - - - - 1006.6 1006.6 -
01/09:00pm 10.4 - - - - - - - - - 1006.5 1006.5 -
01/08:30pm 12.0 - - - - - - - - - 1005.1 1005.1 -
01/08:00pm 12.2 - - - - - - - - - 1004.8 1004.8 -
01/07:30pm 12.1 - - - - - - - - - 1004.8 1004.8 -
01/07:00pm 11.4 - - - - - - - - - 1004.7 1004.7 -
01/06:30pm 11.7 - - - - - - - - - 1006.1 1006.1 -
01/06:00pm 11.7 - - - - - - - - - 1006.9 1006.9 -
01/05:30pm 11.7 - - - - - - - - - 1007.7 1007.7 -
01/05:00pm 11.8 - - - - - - - - - 1008.4 1008.4 -
01/04:30pm 12.0 - - - - - - - - - 1009.1 1009.1 -
01/04:00pm 11.9 - - - - - - - - - 1009.6 1009.6 -
01/03:30pm 12.1 - - - - - - - - - 1010.1 1010.1 -
01/03:00pm 12.0 - - - - - - - - - 1010.4 1010.4 -
01/02:30pm 11.7 - - - - - - - - - 1011.1 1011.1 -
01/02:00pm 11.3 - - - - - - - - - 1011.7 1011.7 -
01/01:30pm 10.9 - - - - - - - - - 1012.8 1012.8 -
01/01:00pm 10.1 - - - - - - - - - 1013.8 1013.8 -
01/12:30pm 10.0 - - - - - - - - - 1014.5 1014.5 -
01/12:00pm 9.7 - - - - - - - - - 1015.4 1015.4 -
01/11:30am 8.9 - - - - - - - - - 1016.6 1016.6 -
01/11:00am 8.9 - - - - - - - - - 1017.7 1017.7 -
01/10:30am 8.4 - - - - - - - - - 1018.5 1018.5 -
01/10:00am 8.0 - - - - - - - - - 1019.0 1019.0 -
01/09:30am 8.5 - - - - - - - - - 1019.6 1019.6 -
01/09:00am 7.6 - - - - - - - - - 1019.5 1019.5 -
01/08:30am 6.6 - - - - - - - - - 1019.8 1019.8 -
01/08:00am 6.3 - - - - - - - - - 1019.6 1019.6 -
01/07:30am 6.9 - - - - - - - - - 1019.8 1019.8 -
01/07:00am 6.4 - - - - - - - - - 1020.1 1020.1 -
01/06:30am 6.4 - - - - - - - - - 1020.3 1020.3 -
01/06:00am 6.0 - - - - - - - - - 1020.5 1020.5 -
01/05:30am 6.3 - - - - - - - - - 1020.6 1020.6 -
01/05:00am 7.0 - - - - - - - - - 1020.8 1020.8 -
01/04:30am 6.4 - - - - - - - - - 1020.9 1020.9 -
01/04:00am 6.4 - - - - - - - - - 1021.1 1021.1 -
01/03:30am 6.1 - - - - - - - - - 1021.3 1021.3 -
01/03:00am 6.3 - - - - - - - - - 1021.7 1021.7 -
01/02:30am 7.3 - - - - - - - - - 1022.2 1022.2 -
01/02:00am 7.0 - - - - - - - - - 1022.3 1022.3 -
01/01:30am 7.2 - - - - - - - - - 1022.4 1022.4 -
01/01:00am 7.2 - - - - - - - - - 1022.7 1022.7 -
01/12:30am 8.8 - - - - - - - - - 1022.9 1022.9 -
01/12:00am 7.7 - - - - - - - - - 1023.1 1023.1 -
 
Date/Time
EST
Temp
°C
App
Temp
°C
Dew
Point
Rel
Hum
%
Delta-T
°C
Wind Press
QNH
hPa
Press
MSL
hPa
Rain
since 9 am
mm
Dir
 
Spd
km/h
Gust
km/h
Spd
kts
Gust
kts
30/11:30pm 6.7 - - - - - - - - - 1023.4 1023.4 -
30/11:00pm 6.7 - - - - - - - - - 1023.6 1023.6 -
30/10:30pm 8.2 - - - - - - - - - 1023.7 1023.7 -
30/10:00pm 6.5 - - - - - - - - - 1023.8 1023.8 -
30/09:30pm 7.3 - - - - - - - - - 1024.0 1024.0 -
30/09:00pm 6.7 - - - - - - - - - 1023.8 1023.8 -
30/08:30pm 6.7 - - - - - - - - - 1023.9 1023.9 -
30/08:00pm 7.1 - - - - - - - - - 1023.9 1023.9 -
30/07:30pm 7.6 - - - - - - - - - 1023.9 1023.9 -
30/07:00pm 7.4 - - - - - - - - - 1023.7 1023.7 -
30/06:30pm 8.5 - - - - - - - - - 1023.6 1023.6 -
30/06:00pm 8.8 - - - - - - - - - 1023.7 1023.7 -
30/05:30pm 9.7 - - - - - - - - - 1023.2 1023.2 -
30/05:00pm 10.2 - - - - - - - - - 1023.1 1023.1 -
30/04:30pm 11.4 - - - - - - - - - 1022.8 1022.8 -
30/04:00pm 12.4 - - - - - - - - - 1022.7 1022.7 -
30/03:30pm 12.6 - - - - - - - - - 1022.7 1022.7 -
30/03:00pm 13.6 - - - - - - - - - 1022.9 1022.9 -
30/02:30pm 13.8 - - - - - - - - - 1022.7 1022.7 -
30/02:00pm 14.3 - - - - - - - - - 1022.9 1022.9 -
30/01:30pm 13.3 - - - - - - - - - 1023.1 1023.1 -
30/01:00pm 15.1 - - - - - - - - - 1023.3 1023.3 -
30/12:30pm 13.4 - - - - - - - - - 1023.5 1023.5 -
30/12:00pm 10.9 - - - - - - - - - 1023.9 1023.9 -
30/11:30am 13.2 - - - - - - - - - 1024.4 1024.4 -
30/11:00am 10.6 - - - - - - - - - 1024.9 1024.9 -
30/10:30am 9.0 - - - - - - - - - 1025.3 1025.3 -
30/10:00am 9.6 - - - - - - - - - 1025.3 1025.3 -
30/09:30am 9.9 - - - - - - - - - 1025.2 1025.2 -
30/09:00am 9.3 - - - - - - - - - 1025.1 1025.1 -
30/08:30am 8.3 - - - - - - - - - 1024.8 1024.8 -
30/08:00am 8.5 - - - - - - - - - 1024.5 1024.5 -
30/07:30am 8.7 - - - - - - - - - 1024.2 1024.2 -
30/07:00am 9.2 - - - - - - - - - 1024.0 1024.0 -
30/06:30am 9.3 - - - - - - - - - 1023.6 1023.6 -
30/06:00am 8.9 - - - - - - - - - 1023.3 1023.3 -
30/05:30am 9.2 - - - - - - - - - 1023.4 1023.4 -
30/05:00am 9.5 - - - - - - - - - 1023.2 1023.2 -
30/04:30am 10.3 - - - - - - - - - 1023.2 1023.2 -
30/04:00am 10.7 - - - - - - - - - 1023.1 1023.1 -
30/03:30am 10.5 - - - - - - - - - 1023.3 1023.3 -
30/03:00am 10.7 - - - - - - - - - 1023.3 1023.3 -
30/02:30am 10.8 - - - - - - - - - 1023.2 1023.2 -
30/02:00am 11.0 - - - - - - - - - 1023.1 1023.1 -
30/01:30am 11.4 - - - - - - - - - 1023.3 1023.3 -
30/01:00am 12.2 - - - - - - - - - 1023.7 1023.7 -
30/12:30am 11.2 - - - - - - - - - 1023.9 1023.9 -
30/12:00am 12.2 - - - - - - - - - 1023.9 1023.9 -
 
Date/Time
EST
Temp
°C
App
Temp
°C
Dew
Point
Rel
Hum
%
Delta-T
°C
Wind Press
QNH
hPa
Press
MSL
hPa
Rain
since 9 am
mm
Dir
 
Spd
km/h
Gust
km/h
Spd
kts
Gust
kts
29/11:30pm 12.5 - - - - - - - - - 1023.8 1023.8 -
29/11:00pm 12.3 - - - - - - - - - 1023.7 1023.7 -
29/10:30pm 11.8 - - - - - - - - - 1023.7 1023.7 -
29/10:00pm 12.4 - - - - - - - - - 1024.1 1024.1 -
29/09:30pm 11.6 - - - - - - - - - 1024.2 1024.2 -
29/09:00pm 12.3 - - - - - - - - - 1024.3 1024.3 -
29/08:30pm 12.8 - - - - - - - - - 1024.3 1024.3 -
29/08:00pm 12.9 - - - - - - - - - 1024.3 1024.3 -
29/07:30pm 13.2 - - - - - - - - - 1024.4 1024.4 -
29/07:00pm 13.5 - - - - - - - - - 1024.2 1024.2 -
29/06:30pm 14.1 - - - - - - - - - 1024.0 1024.0 -
29/06:00pm 13.9 - - - - - - - - - 1024.0 1024.0 -
29/05:30pm 14.2 - - - - - - - - - 1023.7 1023.7 -
29/05:00pm 15.0 - - - - - - - - - 1023.4 1023.4 -
29/04:30pm 15.4 - - - - - - - - - 1023.5 1023.5 -
29/04:00pm 15.6 - - - - - - - - - 1023.5 1023.5 -
29/03:30pm 15.5 - - - - - - - - - 1023.5 1023.5 -
29/03:00pm 16.3 - - - - - - - - - 1023.2 1023.2 -
29/02:30pm 16.1 - - - - - - - - - 1023.1 1023.1 -
29/02:00pm 16.3 - - - - - - - - - 1023.2 1023.2 -
29/01:30pm 16.0 - - - - - - - - - 1023.5 1023.5 -
29/01:00pm 15.1 - - - - - - - - - 1023.9 1023.9 -
29/12:30pm 15.0 - - - - - - - - - 1024.3 1024.3 -
29/12:00pm 14.5 - - - - - - - - - 1024.7 1024.7 -
29/11:30am 14.1 - - - - - - - - - 1025.0 1025.0 -
29/11:00am 14.5 - - - - - - - - - 1025.2 1025.2 -
29/10:30am 13.9 - - - - - - - - - 1025.4 1025.4 -
29/10:00am 13.5 - - - - - - - - - 1025.5 1025.5 -
29/09:30am 13.3 - - - - - - - - - 1025.5 1025.5 -
29/09:00am 13.5 - - - - - - - - - 1025.6 1025.6 -
29/08:30am 12.4 - - - - - - - - - 1025.4 1025.4 -
29/08:00am 12.2 - - - - - - - - - 1025.1 1025.1 -

Other Formats:

Comma delimited format used in spreadsheet applications
http://www.bom.gov.au/fwo/IDT60801/IDT60801.95987.axf

JavaScript Object Notation format (JSON) in row-major order
http://www.bom.gov.au/fwo/IDT60801/IDT60801.95987.json